sensor_id;sensor_type;location;lat;lon;timestamp;temperature;humidity
22956;DHT22;40888;48.148;11.526;2023-02-04T00:00:22;4.70;99.90
22956;DHT22;40888;48.148;11.526;2023-02-04T00:02:48;4.70;99.90
22956;DHT22;40888;48.148;11.526;2023-02-04T00:05:16;4.70;99.90
22956;DHT22;40888;48.148;11.526;2023-02-04T00:07:42;4.70;99.90
22956;DHT22;40888;48.148;11.526;2023-02-04T00:10:08;4.70;99.90
22956;DHT22;40888;48.148;11.526;2023-02-04T00:12:34;4.70;99.90
22956;DHT22;40888;48.148;11.526;2023-02-04T00:15:00;4.70;99.90
22956;DHT22;40888;48.148;11.526;2023-02-04T00:17:26;4.70;99.90
22956;DHT22;40888;48.148;11.526;2023-02-04T00:19:52;4.60;99.90
22956;DHT22;40888;48.148;11.526;2023-02-04T00:22:18;4.60;99.90
22956;DHT22;40888;48.148;11.526;2023-02-04T00:24:45;4.60;99.90
22956;DHT22;40888;48.148;11.526;2023-02-04T00:27:14;4.50;99.90
22956;DHT22;40888;48.148;11.526;2023-02-04T00:29:40;4.50;99.90
22956;DHT22;40888;48.148;11.526;2023-02-04T00:32:06;4.50;99.90
22956;DHT22;40888;48.148;11.526;2023-02-04T00:34:32;4.50;99.90
22956;DHT22;40888;48.148;11.526;2023-02-04T00:36:58;4.60;99.90
22956;DHT22;40888;48.148;11.526;2023-02-04T00:39:23;4.50;99.90
22956;DHT22;40888;48.148;11.526;2023-02-04T00:41:49;4.60;99.90
22956;DHT22;40888;48.148;11.526;2023-02-04T00:44:15;4.60;99.90
22956;DHT22;40888;48.148;11.526;2023-02-04T00:46:41;4.60;99.90
22956;DHT22;40888;48.148;11.526;2023-02-04T00:49:08;4.60;99.90
22956;DHT22;40888;48.148;11.526;2023-02-04T00:51:36;4.60;99.90
22956;DHT22;40888;48.148;11.526;2023-02-04T00:54:03;4.60;99.90
22956;DHT22;40888;48.148;11.526;2023-02-04T00:56:28;4.60;99.90
22956;DHT22;40888;48.148;11.526;2023-02-04T00:58:54;4.50;99.90
22956;DHT22;40888;48.148;11.526;2023-02-04T01:01:20;4.60;99.90
22956;DHT22;40888;48.148;11.526;2023-02-04T01:03:46;4.60;99.90
22956;DHT22;40888;48.148;11.526;2023-02-04T01:06:11;4.60;99.90
22956;DHT22;40888;48.148;11.526;2023-02-04T01:08:37;4.60;99.90
22956;DHT22;40888;48.148;11.526;2023-02-04T01:11:03;4.50;99.90
22956;DHT22;40888;48.148;11.526;2023-02-04T01:13:29;4.50;99.90
22956;DHT22;40888;48.148;11.526;2023-02-04T01:15:54;4.50;99.90
22956;DHT22;40888;48.148;11.526;2023-02-04T01:18:20;4.50;99.90
22956;DHT22;40888;48.148;11.526;2023-02-04T01:20:46;4.50;99.90
22956;DHT22;40888;48.148;11.526;2023-02-04T01:23:12;4.50;99.90
22956;DHT22;40888;48.148;11.526;2023-02-04T01:25:37;4.50;99.90
22956;DHT22;40888;48.148;11.526;2023-02-04T01:28:03;4.60;99.90
22956;DHT22;40888;48.148;11.526;2023-02-04T01:30:29;4.60;99.90
22956;DHT22;40888;48.148;11.526;2023-02-04T01:32:55;4.50;99.90
22956;DHT22;40888;48.148;11.526;2023-02-04T01:35:20;4.60;99.90
22956;DHT22;40888;48.148;11.526;2023-02-04T01:37:46;4.60;99.90
22956;DHT22;40888;48.148;11.526;2023-02-04T01:40:12;4.60;99.90
22956;DHT22;40888;48.148;11.526;2023-02-04T01:42:38;4.60;99.90
22956;DHT22;40888;48.148;11.526;2023-02-04T01:45:05;4.60;99.90
22956;DHT22;40888;48.148;11.526;2023-02-04T01:47:31;4.60;99.90
22956;DHT22;40888;48.148;11.526;2023-02-04T01:49:57;4.60;99.90
22956;DHT22;40888;48.148;11.526;2023-02-04T01:52:24;4.60;99.90
22956;DHT22;40888;48.148;11.526;2023-02-04T01:54:51;4.60;99.90
22956;DHT22;40888;48.148;11.526;2023-02-04T01:57:17;4.60;99.90
22956;DHT22;40888;48.148;11.526;2023-02-04T01:59:44;4.60;99.90
22956;DHT22;40888;48.148;11.526;2023-02-04T02:02:37;4.60;99.90
22956;DHT22;40888;48.148;11.526;2023-02-04T02:05:12;4.60;99.90
22956;DHT22;40888;48.148;11.526;2023-02-04T02:07:38;4.70;99.90
22956;DHT22;40888;48.148;11.526;2023-02-04T02:10:06;4.70;99.90
22956;DHT22;40888;48.148;11.526;2023-02-04T02:12:33;4.70;99.90
22956;DHT22;40888;48.148;11.526;2023-02-04T02:14:59;4.70;99.90
22956;DHT22;40888;48.148;11.526;2023-02-04T02:17:25;4.80;99.90
22956;DHT22;40888;48.148;11.526;2023-02-04T02:19:51;4.80;99.90
22956;DHT22;40888;48.148;11.526;2023-02-04T02:22:31;4.80;99.90
22956;DHT22;40888;48.148;11.526;2023-02-04T02:24:57;4.70;99.90
22956;DHT22;40888;48.148;11.526;2023-02-04T02:27:23;4.70;99.90
22956;DHT22;40888;48.148;11.526;2023-02-04T02:29:49;4.70;99.90
22956;DHT22;40888;48.148;11.526;2023-02-04T02:32:16;4.80;99.90
22956;DHT22;40888;48.148;11.526;2023-02-04T02:34:42;4.80;99.90
22956;DHT22;40888;48.148;11.526;2023-02-04T02:37:09;4.80;99.90
22956;DHT22;40888;48.148;11.526;2023-02-04T02:39:36;4.80;99.90
22956;DHT22;40888;48.148;11.526;2023-02-04T02:42:03;4.80;99.90
22956;DHT22;40888;48.148;11.526;2023-02-04T02:44:29;4.80;99.90
22956;DHT22;40888;48.148;11.526;2023-02-04T02:46:55;4.80;99.90
22956;DHT22;40888;48.148;11.526;2023-02-04T02:49:21;4.70;99.90
22956;DHT22;40888;48.148;11.526;2023-02-04T02:51:47;4.70;99.90
22956;DHT22;40888;48.148;11.526;2023-02-04T02:54:28;4.70;99.90
22956;DHT22;40888;48.148;11.526;2023-02-04T02:56:54;4.70;99.90
22956;DHT22;40888;48.148;11.526;2023-02-04T02:59:21;4.70;99.90
22956;DHT22;40888;48.148;11.526;2023-02-04T03:01:56;4.60;99.90
22956;DHT22;40888;48.148;11.526;2023-02-04T03:04:24;4.60;99.90
22956;DHT22;40888;48.148;11.526;2023-02-04T03:06:51;4.60;99.90
22956;DHT22;40888;48.148;11.526;2023-02-04T03:09:17;4.50;99.90
22956;DHT22;40888;48.148;11.526;2023-02-04T03:11:43;4.50;99.90
22956;DHT22;40888;48.148;11.526;2023-02-04T03:14:09;4.50;99.90
22956;DHT22;40888;48.148;11.526;2023-02-04T03:16:36;4.50;99.90
22956;DHT22;40888;48.148;11.526;2023-02-04T03:19:04;4.50;99.90
22956;DHT22;40888;48.148;11.526;2023-02-04T03:21:30;4.50;99.90
22956;DHT22;40888;48.148;11.526;2023-02-04T03:23:56;4.50;99.90
22956;DHT22;40888;48.148;11.526;2023-02-04T03:26:23;4.40;99.90
22956;DHT22;40888;48.148;11.526;2023-02-04T03:28:49;4.50;99.90
22956;DHT22;40888;48.148;11.526;2023-02-04T03:31:15;4.40;99.90
22956;DHT22;40888;48.148;11.526;2023-02-04T03:33:41;4.40;99.90
22956;DHT22;40888;48.148;11.526;2023-02-04T03:36:08;4.40;99.90
22956;DHT22;40888;48.148;11.526;2023-02-04T03:38:33;4.40;99.90
22956;DHT22;40888;48.148;11.526;2023-02-04T03:40:59;4.40;99.90
22956;DHT22;40888;48.148;11.526;2023-02-04T03:43:25;4.30;99.90
22956;DHT22;40888;48.148;11.526;2023-02-04T03:45:51;4.40;99.90
22956;DHT22;40888;48.148;11.526;2023-02-04T03:48:17;4.30;99.90
22956;DHT22;40888;48.148;11.526;2023-02-04T03:50:43;4.30;99.90
22956;DHT22;40888;48.148;11.526;2023-02-04T03:53:08;4.30;99.90
22956;DHT22;40888;48.148;11.526;2023-02-04T03:55:34;4.30;99.90
22956;DHT22;40888;48.148;11.526;2023-02-04T03:58:01;4.30;99.90
22956;DHT22;40888;48.148;11.526;2023-02-04T04:00:27;4.30;99.90
22956;DHT22;40888;48.148;11.526;2023-02-04T04:02:53;4.30;99.90
22956;DHT22;40888;48.148;11.526;2023-02-04T04:05:19;4.30;99.90
22956;DHT22;40888;48.148;11.526;2023-02-04T04:07:44;4.30;99.90
22956;DHT22;40888;48.148;11.526;2023-02-04T04:10:10;4.30;99.90
22956;DHT22;40888;48.148;11.526;2023-02-04T04:12:36;4.30;99.90
22956;DHT22;40888;48.148;11.526;2023-02-04T04:15:03;4.30;99.90
22956;DHT22;40888;48.148;11.526;2023-02-04T04:17:29;4.20;99.90
22956;DHT22;40888;48.148;11.526;2023-02-04T04:19:55;4.20;99.90
22956;DHT22;40888;48.148;11.526;2023-02-04T04:22:20;4.20;99.90
22956;DHT22;40888;48.148;11.526;2023-02-04T04:24:46;4.20;99.90
22956;DHT22;40888;48.148;11.526;2023-02-04T04:27:12;4.10;99.90
22956;DHT22;40888;48.148;11.526;2023-02-04T04:29:37;4.00;99.90
22956;DHT22;40888;48.148;11.526;2023-02-04T04:32:03;4.00;99.90
22956;DHT22;40888;48.148;11.526;2023-02-04T04:34:30;4.00;99.90
22956;DHT22;40888;48.148;11.526;2023-02-04T04:36:56;3.90;99.90
22956;DHT22;40888;48.148;11.526;2023-02-04T04:39:21;3.90;99.90
22956;DHT22;40888;48.148;11.526;2023-02-04T04:41:47;3.90;99.90
22956;DHT22;40888;48.148;11.526;2023-02-04T04:44:13;3.90;99.90
22956;DHT22;40888;48.148;11.526;2023-02-04T04:46:38;3.80;99.90
22956;DHT22;40888;48.148;11.526;2023-02-04T04:49:05;3.80;99.90
22956;DHT22;40888;48.148;11.526;2023-02-04T04:51:31;3.80;99.90
22956;DHT22;40888;48.148;11.526;2023-02-04T04:53:58;3.80;99.90
22956;DHT22;40888;48.148;11.526;2023-02-04T04:56:24;3.70;99.90
22956;DHT22;40888;48.148;11.526;2023-02-04T04:58:50;3.70;99.90
22956;DHT22;40888;48.148;11.526;2023-02-04T05:01:16;3.70;99.90
22956;DHT22;40888;48.148;11.526;2023-02-04T05:03:42;3.60;99.90
22956;DHT22;40888;48.148;11.526;2023-02-04T05:06:08;3.60;99.90
22956;DHT22;40888;48.148;11.526;2023-02-04T05:08:34;3.60;99.90
22956;DHT22;40888;48.148;11.526;2023-02-04T05:11:03;3.60;99.90
22956;DHT22;40888;48.148;11.526;2023-02-04T05:13:29;3.60;99.90
22956;DHT22;40888;48.148;11.526;2023-02-04T05:15:55;3.50;99.90
22956;DHT22;40888;48.148;11.526;2023-02-04T05:18:20;3.60;99.90
22956;DHT22;40888;48.148;11.526;2023-02-04T05:20:46;3.50;99.90
22956;DHT22;40888;48.148;11.526;2023-02-04T05:23:12;3.50;99.90
22956;DHT22;40888;48.148;11.526;2023-02-04T05:25:37;3.50;99.90
22956;DHT22;40888;48.148;11.526;2023-02-04T05:28:04;3.60;99.90
22956;DHT22;40888;48.148;11.526;2023-02-04T05:30:30;3.60;99.90
22956;DHT22;40888;48.148;11.526;2023-02-04T05:32:56;3.50;99.90
22956;DHT22;40888;48.148;11.526;2023-02-04T05:35:21;3.60;99.90
22956;DHT22;40888;48.148;11.526;2023-02-04T05:37:47;3.60;99.90
22956;DHT22;40888;48.148;11.526;2023-02-04T05:40:13;3.60;99.90
22956;DHT22;40888;48.148;11.526;2023-02-04T05:42:39;3.60;99.90
22956;DHT22;40888;48.148;11.526;2023-02-04T05:45:08;3.70;99.90
22956;DHT22;40888;48.148;11.526;2023-02-04T05:47:33;3.70;99.90
22956;DHT22;40888;48.148;11.526;2023-02-04T05:49:59;3.60;99.90
22956;DHT22;40888;48.148;11.526;2023-02-04T05:52:25;3.70;99.90
22956;DHT22;40888;48.148;11.526;2023-02-04T05:54:51;3.70;99.90
22956;DHT22;40888;48.148;11.526;2023-02-04T05:57:16;3.60;99.90
22956;DHT22;40888;48.148;11.526;2023-02-04T05:59:42;3.70;99.90
22956;DHT22;40888;48.148;11.526;2023-02-04T06:02:08;3.70;99.90
22956;DHT22;40888;48.148;11.526;2023-02-04T06:04:33;3.70;99.90
22956;DHT22;40888;48.148;11.526;2023-02-04T06:06:59;3.70;99.90
22956;DHT22;40888;48.148;11.526;2023-02-04T06:09:25;3.70;99.90
22956;DHT22;40888;48.148;11.526;2023-02-04T06:11:51;3.70;99.90
22956;DHT22;40888;48.148;11.526;2023-02-04T06:14:16;3.70;99.90
22956;DHT22;40888;48.148;11.526;2023-02-04T06:16:42;3.60;99.90
22956;DHT22;40888;48.148;11.526;2023-02-04T06:19:08;3.70;99.90
22956;DHT22;40888;48.148;11.526;2023-02-04T06:21:33;3.70;99.90
22956;DHT22;40888;48.148;11.526;2023-02-04T06:23:59;3.70;99.90
22956;DHT22;40888;48.148;11.526;2023-02-04T06:26:25;3.70;99.90
22956;DHT22;40888;48.148;11.526;2023-02-04T06:28:51;3.70;99.90
22956;DHT22;40888;48.148;11.526;2023-02-04T06:31:17;3.70;99.90
22956;DHT22;40888;48.148;11.526;2023-02-04T06:33:42;3.70;99.90
22956;DHT22;40888;48.148;11.526;2023-02-04T06:36:08;3.70;99.90
22956;DHT22;40888;48.148;11.526;2023-02-04T06:38:34;3.70;99.90
22956;DHT22;40888;48.148;11.526;2023-02-04T06:41:00;3.70;99.90
22956;DHT22;40888;48.148;11.526;2023-02-04T06:43:25;3.70;99.90
22956;DHT22;40888;48.148;11.526;2023-02-04T06:45:52;3.80;99.90
22956;DHT22;40888;48.148;11.526;2023-02-04T06:48:18;3.70;99.90
22956;DHT22;40888;48.148;11.526;2023-02-04T06:50:44;3.80;99.90
22956;DHT22;40888;48.148;11.526;2023-02-04T06:53:09;3.80;99.90
22956;DHT22;40888;48.148;11.526;2023-02-04T06:55:35;3.80;99.90
22956;DHT22;40888;48.148;11.526;2023-02-04T06:58:01;3.70;99.90
22956;DHT22;40888;48.148;11.526;2023-02-04T07:00:27;3.70;99.90
22956;DHT22;40888;48.148;11.526;2023-02-04T07:02:55;3.70;99.90
22956;DHT22;40888;48.148;11.526;2023-02-04T07:05:22;3.70;99.90
22956;DHT22;40888;48.148;11.526;2023-02-04T07:07:48;3.70;99.90
22956;DHT22;40888;48.148;11.526;2023-02-04T07:10:14;3.70;99.90
22956;DHT22;40888;48.148;11.526;2023-02-04T07:12:41;3.70;99.90
22956;DHT22;40888;48.148;11.526;2023-02-04T07:15:07;3.70;99.90
22956;DHT22;40888;48.148;11.526;2023-02-04T07:17:33;3.60;99.90
22956;DHT22;40888;48.148;11.526;2023-02-04T07:19:59;3.60;99.90
22956;DHT22;40888;48.148;11.526;2023-02-04T07:22:24;3.70;99.90
22956;DHT22;40888;48.148;11.526;2023-02-04T07:24:50;3.70;99.90
22956;DHT22;40888;48.148;11.526;2023-02-04T07:27:16;3.70;99.90
22956;DHT22;40888;48.148;11.526;2023-02-04T07:29:41;3.70;99.90
22956;DHT22;40888;48.148;11.526;2023-02-04T07:32:07;3.70;99.90
22956;DHT22;40888;48.148;11.526;2023-02-04T07:34:33;3.70;99.90
22956;DHT22;40888;48.148;11.526;2023-02-04T07:36:59;3.70;99.90
22956;DHT22;40888;48.148;11.526;2023-02-04T07:39:25;3.70;99.90
22956;DHT22;40888;48.148;11.526;2023-02-04T07:41:50;3.70;99.90
22956;DHT22;40888;48.148;11.526;2023-02-04T07:44:16;3.70;99.90
22956;DHT22;40888;48.148;11.526;2023-02-04T07:46:42;3.70;99.90
22956;DHT22;40888;48.148;11.526;2023-02-04T07:49:07;3.70;99.90
22956;DHT22;40888;48.148;11.526;2023-02-04T07:51:33;3.80;99.90
22956;DHT22;40888;48.148;11.526;2023-02-04T07:53:59;3.80;99.90
22956;DHT22;40888;48.148;11.526;2023-02-04T07:56:25;3.80;99.90
22956;DHT22;40888;48.148;11.526;2023-02-04T07:58:51;3.80;99.90
22956;DHT22;40888;48.148;11.526;2023-02-04T08:01:17;3.90;99.90
22956;DHT22;40888;48.148;11.526;2023-02-04T08:03:43;4.00;99.90
22956;DHT22;40888;48.148;11.526;2023-02-04T08:06:08;4.10;99.90
22956;DHT22;40888;48.148;11.526;2023-02-04T08:08:34;4.20;99.90
22956;DHT22;40888;48.148;11.526;2023-02-04T08:11:00;4.20;99.90
22956;DHT22;40888;48.148;11.526;2023-02-04T08:13:26;4.30;99.90
22956;DHT22;40888;48.148;11.526;2023-02-04T08:15:51;4.20;99.90
22956;DHT22;40888;48.148;11.526;2023-02-04T08:18:17;4.20;99.90
22956;DHT22;40888;48.148;11.526;2023-02-04T08:20:43;4.20;99.90
22956;DHT22;40888;48.148;11.526;2023-02-04T08:23:08;4.20;99.90
22956;DHT22;40888;48.148;11.526;2023-02-04T08:25:34;4.20;99.90
22956;DHT22;40888;48.148;11.526;2023-02-04T08:28:00;4.10;99.90
22956;DHT22;40888;48.148;11.526;2023-02-04T08:30:26;4.20;99.90
22956;DHT22;40888;48.148;11.526;2023-02-04T08:32:51;4.20;99.90
22956;DHT22;40888;48.148;11.526;2023-02-04T08:35:17;4.10;99.90
22956;DHT22;40888;48.148;11.526;2023-02-04T08:37:43;4.20;99.90
22956;DHT22;40888;48.148;11.526;2023-02-04T08:40:09;4.20;99.90
22956;DHT22;40888;48.148;11.526;2023-02-04T08:42:35;4.20;99.90
22956;DHT22;40888;48.148;11.526;2023-02-04T08:45:01;4.20;99.90
22956;DHT22;40888;48.148;11.526;2023-02-04T08:47:28;4.20;99.90
22956;DHT22;40888;48.148;11.526;2023-02-04T08:49:54;4.20;99.90
22956;DHT22;40888;48.148;11.526;2023-02-04T08:52:20;4.30;99.90
22956;DHT22;40888;48.148;11.526;2023-02-04T08:54:45;4.40;99.90
22956;DHT22;40888;48.148;11.526;2023-02-04T08:57:11;4.30;99.90
22956;DHT22;40888;48.148;11.526;2023-02-04T08:59:37;4.50;99.90
22956;DHT22;40888;48.148;11.526;2023-02-04T09:02:02;5.60;99.90
22956;DHT22;40888;48.148;11.526;2023-02-04T09:04:28;7.40;99.90
22956;DHT22;40888;48.148;11.526;2023-02-04T09:06:54;8.70;99.90
22956;DHT22;40888;48.148;11.526;2023-02-04T09:09:20;8.30;99.90
22956;DHT22;40888;48.148;11.526;2023-02-04T09:11:46;7.30;99.90
22956;DHT22;40888;48.148;11.526;2023-02-04T09:14:12;6.80;99.90
22956;DHT22;40888;48.148;11.526;2023-02-04T09:16:38;6.50;99.90
22956;DHT22;40888;48.148;11.526;2023-02-04T09:19:05;6.40;99.90
22956;DHT22;40888;48.148;11.526;2023-02-04T09:21:34;6.00;99.90
22956;DHT22;40888;48.148;11.526;2023-02-04T09:24:00;6.00;99.90
22956;DHT22;40888;48.148;11.526;2023-02-04T09:26:25;5.80;99.90
22956;DHT22;40888;48.148;11.526;2023-02-04T09:28:51;5.60;99.90
22956;DHT22;40888;48.148;11.526;2023-02-04T09:31:17;5.60;99.90
22956;DHT22;40888;48.148;11.526;2023-02-04T09:33:43;5.50;99.90
22956;DHT22;40888;48.148;11.526;2023-02-04T09:36:09;5.60;99.90
22956;DHT22;40888;48.148;11.526;2023-02-04T09:38:34;5.60;99.90
22956;DHT22;40888;48.148;11.526;2023-02-04T09:41:02;5.40;99.90
22956;DHT22;40888;48.148;11.526;2023-02-04T09:43:31;5.40;99.90
22956;DHT22;40888;48.148;11.526;2023-02-04T09:45:59;5.30;99.90
22956;DHT22;40888;48.148;11.526;2023-02-04T09:48:25;5.30;99.90
22956;DHT22;40888;48.148;11.526;2023-02-04T09:50:52;5.20;99.90
22956;DHT22;40888;48.148;11.526;2023-02-04T09:53:24;5.20;99.90
22956;DHT22;40888;48.148;11.526;2023-02-04T09:55:50;5.20;99.90
22956;DHT22;40888;48.148;11.526;2023-02-04T09:58:19;5.20;99.90
22956;DHT22;40888;48.148;11.526;2023-02-04T10:00:47;5.20;99.90
22956;DHT22;40888;48.148;11.526;2023-02-04T10:03:17;5.20;99.90
22956;DHT22;40888;48.148;11.526;2023-02-04T10:05:45;5.20;99.90
22956;DHT22;40888;48.148;11.526;2023-02-04T10:08:19;5.20;99.90
22956;DHT22;40888;48.148;11.526;2023-02-04T10:10:47;5.10;99.90
22956;DHT22;40888;48.148;11.526;2023-02-04T10:13:17;5.20;99.90
22956;DHT22;40888;48.148;11.526;2023-02-04T10:15:45;5.20;99.90
22956;DHT22;40888;48.148;11.526;2023-02-04T10:18:24;5.30;99.90
22956;DHT22;40888;48.148;11.526;2023-02-04T10:20:54;5.20;99.90
22956;DHT22;40888;48.148;11.526;2023-02-04T10:23:20;5.10;99.90
22956;DHT22;40888;48.148;11.526;2023-02-04T10:25:46;5.10;99.90
22956;DHT22;40888;48.148;11.526;2023-02-04T10:28:12;5.20;99.90
22956;DHT22;40888;48.148;11.526;2023-02-04T10:30:40;5.30;99.90
22956;DHT22;40888;48.148;11.526;2023-02-04T10:33:23;5.20;99.90
22956;DHT22;40888;48.148;11.526;2023-02-04T10:35:53;5.10;99.90
22956;DHT22;40888;48.148;11.526;2023-02-04T10:38:20;5.00;99.90
22956;DHT22;40888;48.148;11.526;2023-02-04T10:40:46;4.80;99.90
22956;DHT22;40888;48.148;11.526;2023-02-04T10:43:21;4.90;99.90
22956;DHT22;40888;48.148;11.526;2023-02-04T10:45:58;4.70;99.90
22956;DHT22;40888;48.148;11.526;2023-02-04T10:48:24;4.80;99.90
22956;DHT22;40888;48.148;11.526;2023-02-04T10:50:50;5.00;99.90
22956;DHT22;40888;48.148;11.526;2023-02-04T10:53:19;5.00;99.90
22956;DHT22;40888;48.148;11.526;2023-02-04T10:56:25;5.10;99.90
22956;DHT22;40888;48.148;11.526;2023-02-04T10:58:50;5.30;99.90
22956;DHT22;40888;48.148;11.526;2023-02-04T11:01:16;5.60;99.90
22956;DHT22;40888;48.148;11.526;2023-02-04T11:03:42;5.30;99.90
22956;DHT22;40888;48.148;11.526;2023-02-04T11:06:11;5.40;99.90
22956;DHT22;40888;48.148;11.526;2023-02-04T11:08:38;5.50;99.90
22956;DHT22;40888;48.148;11.526;2023-02-04T11:11:07;5.60;99.90
22956;DHT22;40888;48.148;11.526;2023-02-04T11:13:43;5.80;99.90
22956;DHT22;40888;48.148;11.526;2023-02-04T11:16:25;5.90;99.90
22956;DHT22;40888;48.148;11.526;2023-02-04T11:19:12;5.70;99.90
22956;DHT22;40888;48.148;11.526;2023-02-04T11:37:02;6.30;99.90
22956;DHT22;40888;48.148;11.526;2023-02-04T11:42:01;7.00;99.90
22956;DHT22;40888;48.148;11.526;2023-02-04T11:44:27;7.30;99.90
22956;DHT22;40888;48.148;11.526;2023-02-04T11:46:54;7.70;99.90
22956;DHT22;40888;48.148;11.526;2023-02-04T11:49:21;8.10;99.90
22956;DHT22;40888;48.148;11.526;2023-02-04T11:51:48;7.90;99.90
22956;DHT22;40888;48.148;11.526;2023-02-04T11:54:16;8.30;99.90
22956;DHT22;40888;48.148;11.526;2023-02-04T11:56:47;8.30;99.90
22956;DHT22;40888;48.148;11.526;2023-02-04T11:59:13;8.50;99.90
22956;DHT22;40888;48.148;11.526;2023-02-04T12:01:40;8.50;99.90
22956;DHT22;40888;48.148;11.526;2023-02-04T12:04:18;8.80;99.90
22956;DHT22;40888;48.148;11.526;2023-02-04T12:06:56;8.40;99.90
22956;DHT22;40888;48.148;11.526;2023-02-04T12:09:24;8.20;99.90
22956;DHT22;40888;48.148;11.526;2023-02-04T12:11:58;8.20;99.90
22956;DHT22;40888;48.148;11.526;2023-02-04T12:14:34;7.80;99.90
22956;DHT22;40888;48.148;11.526;2023-02-04T12:17:16;7.70;99.90
22956;DHT22;40888;48.148;11.526;2023-02-04T12:19:42;7.50;99.90
22956;DHT22;40888;48.148;11.526;2023-02-04T12:22:07;7.40;99.90
22956;DHT22;40888;48.148;11.526;2023-02-04T12:24:34;7.30;99.90
22956;DHT22;40888;48.148;11.526;2023-02-04T12:27:00;7.40;99.90
22956;DHT22;40888;48.148;11.526;2023-02-04T12:29:25;7.40;99.90
22956;DHT22;40888;48.148;11.526;2023-02-04T12:31:51;7.30;99.90
22956;DHT22;40888;48.148;11.526;2023-02-04T12:34:17;7.20;99.90
22956;DHT22;40888;48.148;11.526;2023-02-04T12:36:43;7.20;99.90
22956;DHT22;40888;48.148;11.526;2023-02-04T12:39:08;7.30;99.90
22956;DHT22;40888;48.148;11.526;2023-02-04T12:41:37;7.30;99.90
22956;DHT22;40888;48.148;11.526;2023-02-04T12:44:02;6.90;99.90
22956;DHT22;40888;48.148;11.526;2023-02-04T12:46:29;6.90;99.90
22956;DHT22;40888;48.148;11.526;2023-02-04T12:48:54;6.90;99.90
22956;DHT22;40888;48.148;11.526;2023-02-04T12:51:21;6.90;99.90
22956;DHT22;40888;48.148;11.526;2023-02-04T12:53:47;6.80;99.90
22956;DHT22;40888;48.148;11.526;2023-02-04T12:56:14;6.70;99.90
22956;DHT22;40888;48.148;11.526;2023-02-04T12:58:40;6.60;99.90
22956;DHT22;40888;48.148;11.526;2023-02-04T13:01:06;5.80;99.90
22956;DHT22;40888;48.148;11.526;2023-02-04T13:03:32;5.50;99.90
22956;DHT22;40888;48.148;11.526;2023-02-04T13:05:58;5.60;99.90
22956;DHT22;40888;48.148;11.526;2023-02-04T13:08:24;5.50;99.90
22956;DHT22;40888;48.148;11.526;2023-02-04T13:10:51;5.60;99.90
22956;DHT22;40888;48.148;11.526;2023-02-04T13:13:18;5.80;99.90
22956;DHT22;40888;48.148;11.526;2023-02-04T13:15:44;5.90;99.90
22956;DHT22;40888;48.148;11.526;2023-02-04T13:18:10;5.80;99.90
22956;DHT22;40888;48.148;11.526;2023-02-04T13:20:36;5.90;99.90
22956;DHT22;40888;48.148;11.526;2023-02-04T13:23:02;5.80;99.90
22956;DHT22;40888;48.148;11.526;2023-02-04T13:25:27;5.70;99.90
22956;DHT22;40888;48.148;11.526;2023-02-04T13:27:53;5.80;99.90
22956;DHT22;40888;48.148;11.526;2023-02-04T13:30:19;5.80;99.90
22956;DHT22;40888;48.148;11.526;2023-02-04T13:32:45;5.80;99.90
22956;DHT22;40888;48.148;11.526;2023-02-04T13:35:10;5.70;99.90
22956;DHT22;40888;48.148;11.526;2023-02-04T13:37:36;5.60;99.90
22956;DHT22;40888;48.148;11.526;2023-02-04T13:40:04;5.60;99.90
22956;DHT22;40888;48.148;11.526;2023-02-04T13:42:30;5.50;99.90
22956;DHT22;40888;48.148;11.526;2023-02-04T13:44:56;5.50;99.90
22956;DHT22;40888;48.148;11.526;2023-02-04T13:47:21;5.30;99.90
22956;DHT22;40888;48.148;11.526;2023-02-04T13:49:47;5.30;99.90
22956;DHT22;40888;48.148;11.526;2023-02-04T13:52:13;5.30;99.90
22956;DHT22;40888;48.148;11.526;2023-02-04T13:54:39;5.40;99.90
22956;DHT22;40888;48.148;11.526;2023-02-04T13:57:05;5.40;99.90
22956;DHT22;40888;48.148;11.526;2023-02-04T13:59:30;5.40;99.90
22956;DHT22;40888;48.148;11.526;2023-02-04T14:01:57;5.30;99.90
22956;DHT22;40888;48.148;11.526;2023-02-04T14:04:22;5.10;99.90
22956;DHT22;40888;48.148;11.526;2023-02-04T14:06:48;5.00;99.90
22956;DHT22;40888;48.148;11.526;2023-02-04T14:09:14;5.00;99.90
22956;DHT22;40888;48.148;11.526;2023-02-04T14:11:40;4.80;99.90
22956;DHT22;40888;48.148;11.526;2023-02-04T14:14:06;4.70;99.90
22956;DHT22;40888;48.148;11.526;2023-02-04T14:16:32;4.90;99.90
22956;DHT22;40888;48.148;11.526;2023-02-04T14:18:58;4.90;99.90
22956;DHT22;40888;48.148;11.526;2023-02-04T14:21:23;4.80;99.90
22956;DHT22;40888;48.148;11.526;2023-02-04T14:23:49;4.90;99.90
22956;DHT22;40888;48.148;11.526;2023-02-04T14:26:15;4.90;99.90
22956;DHT22;40888;48.148;11.526;2023-02-04T14:28:40;5.00;99.90
22956;DHT22;40888;48.148;11.526;2023-02-04T14:31:06;5.10;99.90
22956;DHT22;40888;48.148;11.526;2023-02-04T14:33:32;5.20;99.90
22956;DHT22;40888;48.148;11.526;2023-02-04T14:35:57;5.20;99.90
22956;DHT22;40888;48.148;11.526;2023-02-04T14:38:23;5.20;99.90
22956;DHT22;40888;48.148;11.526;2023-02-04T14:40:56;5.20;99.90
22956;DHT22;40888;48.148;11.526;2023-02-04T14:43:23;5.10;99.90
22956;DHT22;40888;48.148;11.526;2023-02-04T14:45:48;5.10;99.90
22956;DHT22;40888;48.148;11.526;2023-02-04T14:48:14;5.10;99.90
22956;DHT22;40888;48.148;11.526;2023-02-04T14:50:40;5.00;99.90
22956;DHT22;40888;48.148;11.526;2023-02-04T14:53:05;4.90;99.90
22956;DHT22;40888;48.148;11.526;2023-02-04T14:55:31;5.00;99.90
22956;DHT22;40888;48.148;11.526;2023-02-04T14:57:57;4.90;99.90
22956;DHT22;40888;48.148;11.526;2023-02-04T15:00:23;5.00;99.90
22956;DHT22;40888;48.148;11.526;2023-02-04T15:02:48;4.90;99.90
22956;DHT22;40888;48.148;11.526;2023-02-04T15:05:14;5.00;99.90
22956;DHT22;40888;48.148;11.526;2023-02-04T15:07:40;5.00;99.90
22956;DHT22;40888;48.148;11.526;2023-02-04T15:10:07;4.80;99.90
22956;DHT22;40888;48.148;11.526;2023-02-04T15:12:33;4.80;99.90
22956;DHT22;40888;48.148;11.526;2023-02-04T15:14:59;4.80;99.90
22956;DHT22;40888;48.148;11.526;2023-02-04T15:17:24;4.80;99.90
22956;DHT22;40888;48.148;11.526;2023-02-04T15:19:50;4.80;99.90
22956;DHT22;40888;48.148;11.526;2023-02-04T15:22:16;4.70;99.90
22956;DHT22;40888;48.148;11.526;2023-02-04T15:24:41;4.80;99.90
22956;DHT22;40888;48.148;11.526;2023-02-04T15:27:07;4.70;99.90
22956;DHT22;40888;48.148;11.526;2023-02-04T15:29:33;4.60;99.90
22956;DHT22;40888;48.148;11.526;2023-02-04T15:31:59;4.60;99.90
22956;DHT22;40888;48.148;11.526;2023-02-04T15:34:25;4.60;99.90
22956;DHT22;40888;48.148;11.526;2023-02-04T15:36:50;4.60;99.90
22956;DHT22;40888;48.148;11.526;2023-02-04T15:39:16;4.70;99.90
22956;DHT22;40888;48.148;11.526;2023-02-04T15:41:42;4.70;99.90
22956;DHT22;40888;48.148;11.526;2023-02-04T15:44:09;4.60;99.90